createdAt,value
2022-08-24T00:00:21.617Z,51.41
2022-08-24T00:02:26.608Z,51.01
2022-08-24T00:04:31.946Z,50.42
2022-08-24T00:06:35.187Z,49.97
2022-08-24T00:08:38.148Z,50.79
2022-08-24T00:10:41.663Z,50.62
2022-08-24T00:12:44.517Z,51.35
2022-08-24T00:14:46.309Z,53.24
2022-08-24T00:16:49.227Z,54.62
2022-08-24T00:18:53.657Z,55.87
2022-08-24T00:20:56.698Z,57.51
2022-08-24T00:22:59.662Z,57.59
2022-08-24T00:25:02.494Z,57.82
2022-08-24T00:27:06.466Z,58.30
2022-08-24T00:29:09.679Z,58.93
2022-08-24T00:31:13.024Z,58.11
2022-08-24T00:33:15.998Z,59.04
2022-08-24T00:35:20.434Z,59.60
2022-08-24T00:37:23.350Z,59.41
2022-08-24T00:39:26.273Z,61.26
2022-08-24T00:41:29.797Z,60.78
2022-08-24T00:43:34.035Z,59.74
2022-08-24T00:45:41.670Z,59.41
2022-08-24T00:47:48.061Z,60.64
2022-08-24T00:49:57.678Z,61.01
2022-08-24T00:52:08.406Z,61.13
2022-08-24T00:54:14.747Z,61.26
2022-08-24T00:56:21.983Z,62.52
2022-08-24T00:58:29.002Z,61.63
2022-08-24T01:00:36.806Z,60.34
2022-08-24T01:02:43.697Z,60.61
2022-08-24T01:04:51.565Z,61.47
2022-08-24T01:06:54.492Z,61.29
2022-08-24T01:08:58.651Z,62.59
2022-08-24T01:11:06.953Z,64.68
2022-08-24T01:13:12.934Z,64.73
2022-08-24T01:15:16.362Z,66.03
2022-08-24T01:17:39.093Z,65.81
2022-08-24T01:19:46.627Z,67.50
2022-08-24T01:22:00.553Z,67.21
2022-08-24T01:24:11.156Z,64.77
2022-08-24T01:26:18.208Z,62.11
2022-08-24T01:28:27.153Z,59.99
2022-08-24T01:30:36.141Z,57.92
2022-08-24T01:32:39.631Z,57.11
2022-08-24T01:34:42.430Z,56.67
2022-08-24T01:36:48.812Z,55.08
2022-08-24T01:38:52.296Z,55.33
2022-08-24T01:41:01.873Z,54.46
2022-08-24T01:43:07.313Z,53.56
2022-08-24T01:45:11.107Z,52.60
2022-08-24T01:47:16.681Z,51.78
2022-08-24T01:49:21.020Z,51.49
2022-08-24T01:51:23.920Z,50.99
2022-08-24T01:53:26.879Z,50.63
2022-08-24T01:55:30.110Z,50.77
2022-08-24T01:57:34.364Z,50.49
2022-08-24T01:59:38.655Z,50.33
2022-08-24T02:01:48.842Z,50.51
2022-08-24T02:03:51.803Z,50.34
2022-08-24T02:05:56.199Z,50.48
2022-08-24T02:07:59.135Z,50.50
2022-08-24T02:10:01.955Z,50.27
2022-08-24T02:12:06.466Z,50.15
2022-08-24T02:14:11.876Z,49.93
2022-08-24T02:16:17.809Z,49.97
2022-08-24T02:18:20.930Z,50.06
2022-08-24T02:20:24.819Z,50.55
2022-08-24T02:22:28.130Z,50.38
2022-08-24T02:24:31.449Z,50.51
2022-08-24T02:26:34.490Z,50.93
2022-08-24T02:28:38.502Z,50.74
2022-08-24T02:30:43.050Z,53.80
2022-08-24T02:32:45.824Z,56.62
2022-08-24T02:34:48.698Z,63.05
2022-08-24T02:36:52.303Z,66.71
2022-08-24T02:38:55.834Z,62.04
2022-08-24T02:40:59.504Z,58.33
2022-08-24T02:43:03.096Z,57.04
2022-08-24T02:45:08.740Z,55.77
2022-08-24T02:47:13.456Z,54.72
2022-08-24T02:49:16.454Z,53.74
2022-08-24T02:51:21.299Z,53.12
2022-08-24T02:53:24.840Z,52.69
2022-08-24T02:55:27.615Z,52.94
2022-08-24T02:57:30.447Z,52.93
2022-08-24T02:59:33.517Z,52.58
2022-08-24T03:01:36.381Z,53.49
2022-08-24T03:03:41.429Z,53.42
2022-08-24T03:05:44.412Z,53.10
2022-08-24T03:07:47.722Z,53.60
2022-08-24T03:09:50.597Z,53.27
2022-08-24T03:11:53.459Z,53.37
2022-08-24T03:13:56.408Z,53.47
2022-08-24T03:16:00.391Z,53.68
2022-08-24T03:18:05.158Z,53.42
2022-08-24T03:20:12.964Z,53.45
2022-08-24T03:22:15.796Z,53.59
2022-08-24T03:24:18.805Z,53.40
2022-08-24T03:26:22.884Z,52.98
2022-08-24T03:28:26.678Z,52.82
2022-08-24T03:30:31.163Z,52.40
2022-08-24T03:32:35.149Z,52.65
2022-08-24T03:34:38.238Z,52.57
2022-08-24T03:36:46.468Z,52.26
2022-08-24T03:38:50.701Z,52.33
2022-08-24T03:40:55.107Z,52.50
2022-08-24T03:42:58.936Z,52.96
2022-08-24T03:45:02.796Z,53.00
2022-08-24T03:47:05.918Z,53.08
2022-08-24T03:49:10.752Z,53.12
2022-08-24T03:51:15.885Z,53.09
2022-08-24T03:53:20.212Z,53.13
2022-08-24T03:55:23.226Z,52.99
2022-08-24T03:57:26.303Z,53.03
2022-08-24T03:59:29.504Z,53.15
2022-08-24T04:01:34.358Z,53.06
2022-08-24T04:03:38.835Z,53.71
2022-08-24T04:05:43.239Z,54.46
2022-08-24T04:07:46.345Z,54.52
2022-08-24T04:09:50.868Z,54.32
2022-08-24T04:11:53.721Z,54.30
2022-08-24T04:13:59.762Z,54.08
2022-08-24T04:16:07.011Z,54.18
2022-08-24T04:18:10.881Z,53.88
2022-08-24T04:20:14.115Z,54.70
2022-08-24T04:22:17.169Z,54.20
2022-08-24T04:24:20.598Z,55.41
2022-08-24T04:26:45.297Z,58.41
2022-08-24T04:28:52.052Z,62.31
2022-08-24T04:30:55.483Z,63.78
2022-08-24T04:33:04.701Z,64.60
2022-08-24T04:35:08.994Z,66.06
2022-08-24T04:37:12.981Z,68.72
2022-08-24T04:39:16.169Z,70.37
2022-08-24T04:41:38.875Z,72.87
2022-08-24T04:43:45.155Z,73.54
2022-08-24T04:45:50.937Z,74.70
2022-08-24T04:47:53.851Z,75.12
2022-08-24T04:49:58.106Z,75.72
2022-08-24T04:52:01.447Z,76.17
2022-08-24T04:54:06.327Z,76.34
2022-08-24T04:56:12.805Z,76.24
2022-08-24T04:58:19.199Z,76.51
2022-08-24T05:00:23.334Z,76.56
2022-08-24T05:02:26.631Z,74.84
2022-08-24T05:04:32.353Z,75.08
2022-08-24T05:06:35.542Z,76.96
2022-08-24T05:08:38.404Z,79.88
2022-08-24T05:10:43.650Z,79.98
2022-08-24T05:12:47.073Z,79.87
2022-08-24T05:14:51.485Z,81.04
2022-08-24T05:16:54.625Z,79.37
2022-08-24T05:18:58.119Z,79.58
2022-08-24T05:21:02.386Z,78.55
2022-08-24T05:23:05.857Z,77.89
2022-08-24T05:25:10.588Z,78.26
2022-08-24T05:27:14.131Z,78.40
2022-08-24T05:29:17.249Z,78.31
2022-08-24T05:31:28.382Z,78.22
2022-08-24T05:33:34.074Z,77.96
2022-08-24T05:35:38.653Z,78.23
2022-08-24T05:37:44.553Z,77.62
2022-08-24T05:39:50.052Z,77.22
2022-08-24T05:41:52.988Z,77.81
2022-08-24T05:44:01.558Z,77.66
2022-08-24T05:46:09.631Z,76.51
2022-08-24T05:48:14.076Z,76.78
2022-08-24T05:50:35.767Z,78.04
2022-08-24T05:52:38.779Z,77.80
2022-08-24T05:54:43.124Z,76.36
2022-08-24T05:56:48.055Z,75.47
2022-08-24T05:58:51.237Z,77.04
2022-08-24T06:00:54.071Z,79.61
2022-08-24T06:02:57.063Z,78.57
2022-08-24T06:05:01.424Z,79.36
2022-08-24T06:07:04.789Z,80.26
2022-08-24T06:09:12.629Z,80.90
2022-08-24T06:11:30.110Z,80.93
2022-08-24T06:13:34.552Z,80.67
2022-08-24T06:15:38.007Z,80.80
2022-08-24T06:17:41.103Z,79.05
2022-08-24T06:19:45.845Z,80.62
2022-08-24T06:21:52.298Z,78.98
2022-08-24T06:23:55.738Z,75.82
2022-08-24T06:26:19.188Z,75.87
2022-08-24T06:28:25.869Z,77.51
2022-08-24T06:30:30.724Z,78.20
2022-08-24T06:32:54.491Z,77.81
2022-08-24T06:35:13.355Z,75.84
2022-08-24T06:37:19.126Z,75.70
2022-08-24T06:39:24.611Z,75.40
2022-08-24T06:41:30.007Z,75.73
2022-08-24T06:43:33.699Z,74.71
2022-08-24T06:45:46.323Z,74.95
2022-08-24T06:47:52.207Z,74.57
2022-08-24T06:49:56.023Z,73.01
2022-08-24T06:51:58.839Z,71.52
2022-08-24T06:54:03.016Z,71.95
2022-08-24T06:56:07.824Z,71.28
2022-08-24T06:58:10.629Z,70.56
2022-08-24T07:00:14.643Z,70.67
2022-08-24T07:02:19.312Z,68.89
2022-08-24T07:04:27.497Z,68.99
2022-08-24T07:06:49.685Z,69.59
2022-08-24T07:08:56.409Z,69.10
2022-08-24T07:11:00.883Z,68.49
2022-08-24T07:13:04.054Z,68.20
2022-08-24T07:15:16.210Z,68.47
2022-08-24T07:17:21.527Z,66.85
2022-08-24T07:19:25.590Z,67.02
2022-08-24T07:21:28.409Z,65.83
2022-08-24T07:23:41.946Z,66.20
2022-08-24T07:25:48.921Z,66.21
2022-08-24T07:27:56.877Z,66.48
2022-08-24T07:30:23.564Z,66.10
2022-08-24T07:32:24.391Z,65.62
2022-08-24T07:34:31.071Z,65.87
2022-08-24T07:36:35.326Z,64.45
2022-08-24T07:38:38.965Z,64.97
2022-08-24T07:41:05.233Z,65.47
2022-08-24T07:43:07.491Z,64.52
2022-08-24T07:45:11.320Z,65.29
2022-08-24T07:47:37.070Z,64.68
2022-08-24T07:49:41.649Z,64.46
2022-08-24T07:51:46.975Z,64.02
2022-08-24T07:53:53.995Z,62.22
2022-08-24T07:56:02.570Z,61.70
2022-08-24T07:58:08.027Z,60.10
2022-08-24T08:00:14.284Z,60.29
2022-08-24T08:02:24.093Z,59.88
2022-08-24T08:04:32.059Z,58.11
2022-08-24T08:06:35.491Z,57.44
2022-08-24T08:08:42.056Z,56.18
2022-08-24T08:10:46.697Z,55.55
2022-08-24T08:12:50.274Z,55.04
2022-08-24T08:14:54.470Z,54.42
2022-08-24T08:16:57.370Z,54.23
2022-08-24T08:19:09.845Z,53.11
2022-08-24T08:21:30.963Z,52.59
2022-08-24T08:23:52.117Z,51.86
2022-08-24T08:26:01.901Z,50.81
2022-08-24T08:28:26.197Z,50.78
2022-08-24T08:30:37.972Z,50.46
2022-08-24T08:32:40.977Z,49.02
2022-08-24T08:34:44.113Z,49.35
2022-08-24T08:36:47.428Z,47.96
2022-08-24T08:38:52.838Z,46.80
2022-08-24T08:41:07.574Z,46.57
2022-08-24T08:43:40.802Z,46.12
2022-08-24T08:46:14.154Z,45.75
2022-08-24T08:49:03.771Z,44.35
2022-08-24T08:51:39.045Z,44.06
2022-08-24T08:54:08.282Z,44.15
2022-08-24T08:56:23.992Z,43.30
2022-08-24T08:58:57.425Z,42.50
2022-08-24T09:01:16.333Z,41.55
2022-08-24T09:03:37.487Z,41.26
2022-08-24T09:06:13.476Z,40.05
2022-08-24T09:08:28.383Z,39.53
2022-08-24T09:10:52.631Z,39.69
2022-08-24T09:13:11.965Z,41.06
2022-08-24T09:15:31.967Z,39.29
2022-08-24T09:17:49.931Z,38.14
2022-08-24T09:20:10.010Z,36.72
2022-08-24T09:22:14.541Z,37.30
2022-08-24T09:24:33.520Z,35.28
2022-08-24T09:26:56.506Z,34.87
2022-08-24T09:29:11.292Z,35.18
2022-08-24T09:31:51.660Z,35.02
2022-08-24T09:34:08.024Z,34.58
2022-08-24T09:36:14.055Z,35.06
2022-08-24T09:38:24.416Z,34.12
2022-08-24T09:40:37.855Z,32.84
2022-08-24T09:43:09.897Z,32.45
2022-08-24T09:45:48.570Z,32.44
2022-08-24T09:48:21.072Z,32.76
2022-08-24T09:50:48.738Z,33.24
2022-08-24T09:53:33.868Z,32.46
2022-08-24T09:56:10.404Z,32.00
2022-08-24T09:58:22.773Z,31.00
2022-08-24T10:00:30.139Z,30.62
2022-08-24T10:02:50.094Z,29.97
2022-08-24T10:05:03.242Z,29.25
2022-08-24T10:07:16.822Z,29.70
2022-08-24T10:09:49.199Z,29.98
2022-08-24T10:12:01.227Z,29.26
2022-08-24T10:14:10.637Z,28.19
2022-08-24T10:16:30.692Z,28.68
2022-08-24T10:18:44.262Z,28.06
2022-08-24T10:21:08.887Z,27.26
2022-08-24T10:23:30.101Z,27.53
2022-08-24T10:25:38.679Z,27.14
2022-08-24T10:27:50.652Z,27.52
2022-08-24T10:30:41.258Z,26.94
2022-08-24T10:32:56.013Z,26.37
2022-08-24T10:35:05.878Z,26.15
2022-08-24T10:37:34.520Z,26.15
2022-08-24T10:40:16.028Z,25.26
2022-08-24T10:43:10.108Z,25.45
2022-08-24T10:45:48.062Z,25.75
2022-08-24T10:48:13.390Z,25.94
2022-08-24T10:50:34.730Z,24.75
2022-08-24T10:53:06.223Z,25.34
2022-08-24T10:55:20.684Z,25.49
2022-08-24T10:57:34.719Z,25.13
2022-08-24T10:59:45.381Z,25.50
2022-08-24T11:02:09.581Z,25.20
2022-08-24T11:04:29.321Z,24.85
2022-08-24T11:06:34.551Z,24.85
2022-08-24T11:08:37.436Z,24.69
2022-08-24T11:10:41.591Z,24.22
2022-08-24T11:12:45.133Z,24.47
2022-08-24T11:14:48.853Z,24.88
2022-08-24T11:16:57.079Z,24.97
2022-08-24T11:19:02.366Z,25.52
2022-08-24T11:21:05.431Z,25.03
2022-08-24T11:23:11.097Z,24.49
2022-08-24T11:25:21.646Z,24.67
2022-08-24T11:27:34.289Z,23.85
2022-08-24T11:30:00.507Z,23.43
2022-08-24T11:32:03.796Z,23.53
2022-08-24T11:34:09.306Z,24.22
2022-08-24T11:36:21.466Z,24.19
2022-08-24T11:38:27.380Z,23.11
2022-08-24T11:40:35.378Z,23.09
2022-08-24T11:42:50.891Z,23.02
2022-08-24T11:44:59.617Z,23.11
2022-08-24T11:47:09.492Z,23.47
2022-08-24T11:49:18.462Z,23.00
2022-08-24T11:51:33.219Z,22.57
2022-08-24T11:53:44.172Z,22.93
2022-08-24T11:55:57.103Z,22.98
2022-08-24T11:58:07.428Z,22.93
2022-08-24T12:00:16.478Z,22.71
2022-08-24T12:02:26.859Z,22.95
2022-08-24T12:04:49.961Z,23.04
2022-08-24T12:07:01.118Z,22.39
2022-08-24T12:09:14.200Z,22.78
2022-08-24T12:11:32.998Z,22.50
2022-08-24T12:13:47.060Z,22.84
2022-08-24T12:15:55.008Z,22.46
2022-08-24T12:18:05.083Z,23.09
2022-08-24T12:20:22.226Z,23.01
2022-08-24T12:22:26.084Z,23.04
2022-08-24T12:24:34.072Z,22.58
2022-08-24T12:26:39.906Z,22.57
2022-08-24T12:28:51.225Z,22.30
2022-08-24T12:31:00.679Z,22.41
2022-08-24T12:33:07.481Z,22.28
2022-08-24T12:35:16.703Z,22.75
2022-08-24T12:37:27.093Z,22.67
2022-08-24T12:39:37.029Z,22.14
2022-08-24T12:41:49.432Z,22.04
2022-08-24T12:43:59.767Z,22.67
2022-08-24T12:46:05.973Z,22.01
2022-08-24T12:48:16.646Z,21.78
2022-08-24T12:50:28.383Z,21.22
2022-08-24T12:53:09.030Z,21.34
2022-08-24T12:55:30.081Z,20.03
2022-08-24T12:57:54.734Z,20.41
2022-08-24T13:00:04.553Z,21.02
2022-08-24T13:02:26.207Z,21.15
2022-08-24T13:04:37.902Z,20.40
2022-08-24T13:06:44.724Z,20.89
2022-08-24T13:08:51.969Z,20.56
2022-08-24T13:11:04.685Z,21.50
2022-08-24T13:13:16.578Z,21.82
2022-08-24T13:16:00.458Z,21.74
2022-08-24T13:18:41.400Z,20.60
2022-08-24T13:20:56.753Z,21.32
2022-08-24T13:23:15.844Z,21.86
2022-08-24T13:25:44.782Z,21.96
2022-08-24T13:28:11.346Z,21.38
2022-08-24T13:30:29.717Z,20.79
2022-08-24T13:32:39.371Z,20.91
2022-08-24T13:34:45.162Z,20.23
2022-08-24T13:37:11.147Z,20.37
2022-08-24T13:39:37.126Z,21.26
2022-08-24T13:41:55.397Z,21.77
2022-08-24T13:44:03.639Z,21.19
2022-08-24T13:46:17.694Z,20.95
2022-08-24T13:48:51.852Z,19.91
2022-08-24T13:51:21.556Z,19.33
2022-08-24T13:53:48.611Z,20.06
2022-08-24T13:55:55.000Z,20.45
2022-08-24T13:58:13.912Z,20.10
2022-08-24T14:00:35.061Z,19.91
2022-08-24T14:02:52.110Z,20.19
2022-08-24T14:05:03.786Z,20.10
2022-08-24T14:07:15.968Z,19.56
2022-08-24T14:09:37.578Z,19.10
2022-08-24T14:11:57.442Z,20.16
2022-08-24T14:14:07.498Z,20.39
2022-08-24T14:16:43.376Z,20.07
2022-08-24T14:19:00.131Z,21.14
2022-08-24T14:21:09.676Z,21.12
2022-08-24T14:23:27.925Z,19.30
2022-08-24T14:25:34.036Z,19.57
2022-08-24T14:27:42.760Z,19.26
2022-08-24T14:29:48.042Z,20.13
2022-08-24T14:32:31.418Z,19.69
2022-08-24T14:34:40.919Z,19.50
2022-08-24T14:36:57.363Z,19.56
2022-08-24T14:39:09.435Z,20.17
2022-08-24T14:41:20.978Z,19.70
2022-08-24T14:43:31.475Z,19.27
2022-08-24T14:45:48.008Z,19.95
2022-08-24T14:48:04.701Z,19.56
2022-08-24T14:50:13.412Z,19.17
2022-08-24T14:52:40.631Z,19.66
2022-08-24T14:54:55.708Z,18.76
2022-08-24T14:57:16.068Z,18.19
2022-08-24T14:59:31.674Z,18.15
2022-08-24T15:01:43.766Z,18.28
2022-08-24T15:04:12.779Z,18.78
2022-08-24T15:06:27.449Z,18.27
2022-08-24T15:08:39.164Z,17.98
2022-08-24T15:10:47.400Z,19.36
2022-08-24T15:12:54.740Z,18.99
2022-08-24T15:15:05.783Z,19.46
2022-08-24T15:17:11.499Z,19.30
2022-08-24T15:19:23.000Z,19.96
2022-08-24T15:21:44.674Z,19.79
2022-08-24T15:24:10.367Z,20.45
2022-08-24T15:26:19.873Z,20.76
2022-08-24T15:28:26.494Z,20.52
2022-08-24T15:30:32.293Z,20.15
2022-08-24T15:32:44.918Z,20.40
2022-08-24T15:34:53.043Z,21.34
2022-08-24T15:37:01.060Z,21.19
2022-08-24T15:39:07.218Z,21.23
2022-08-24T15:41:15.361Z,20.95
2022-08-24T15:43:18.777Z,21.03
2022-08-24T15:45:22.050Z,21.64
2022-08-24T15:47:30.285Z,21.72
2022-08-24T15:49:37.896Z,21.46
2022-08-24T15:51:49.357Z,21.92
2022-08-24T15:53:52.260Z,22.12
2022-08-24T15:55:56.700Z,22.05
2022-08-24T15:58:14.514Z,21.12
2022-08-24T16:00:44.418Z,21.46
2022-08-24T16:02:46.593Z,23.71
2022-08-24T16:04:51.672Z,24.41
2022-08-24T16:06:54.629Z,24.16
2022-08-24T16:09:05.009Z,24.64
2022-08-24T16:11:22.637Z,25.98
2022-08-24T16:13:29.536Z,26.83
2022-08-24T16:15:33.507Z,26.80
2022-08-24T16:17:41.357Z,27.17
2022-08-24T16:19:51.727Z,26.60
2022-08-24T16:21:58.853Z,26.77
2022-08-24T16:24:07.939Z,26.96
2022-08-24T16:26:24.932Z,26.78
2022-08-24T16:28:35.974Z,27.92
2022-08-24T16:30:47.908Z,27.26
2022-08-24T16:32:55.896Z,27.07
2022-08-24T16:35:20.821Z,26.70
2022-08-24T16:37:25.226Z,27.32
2022-08-24T16:39:28.454Z,26.56
2022-08-24T16:41:32.620Z,26.93
2022-08-24T16:43:36.584Z,26.81
2022-08-24T16:45:39.844Z,26.22
2022-08-24T16:47:42.669Z,25.51
2022-08-24T16:49:45.668Z,25.52
2022-08-24T16:51:48.511Z,25.60
2022-08-24T16:53:51.520Z,25.19
2022-08-24T16:55:54.824Z,24.59
2022-08-24T16:58:01.508Z,24.90
2022-08-24T17:00:08.228Z,26.25
2022-08-24T17:02:11.530Z,26.88
2022-08-24T17:04:14.833Z,27.79
2022-08-24T17:06:18.823Z,27.60
2022-08-24T17:08:21.617Z,28.45
2022-08-24T17:10:24.604Z,29.46
2022-08-24T17:12:27.666Z,29.29
2022-08-24T17:14:31.864Z,28.71
2022-08-24T17:16:34.821Z,28.35
2022-08-24T17:18:37.766Z,28.36
2022-08-24T17:20:40.705Z,28.09
2022-08-24T17:22:43.481Z,28.58
2022-08-24T17:24:47.112Z,28.89
2022-08-24T17:26:52.199Z,29.35
2022-08-24T17:28:55.529Z,29.47
2022-08-24T17:30:59.913Z,30.16
2022-08-24T17:33:03.398Z,31.55
2022-08-24T17:35:06.913Z,32.27
2022-08-24T17:37:10.871Z,32.06
2022-08-24T17:39:15.408Z,31.97
2022-08-24T17:41:18.662Z,32.06
2022-08-24T17:43:21.820Z,32.95
2022-08-24T17:45:24.616Z,33.45
2022-08-24T17:47:28.860Z,33.85
2022-08-24T17:49:32.964Z,34.64
2022-08-24T17:51:35.750Z,34.98
2022-08-24T17:53:40.867Z,35.19
2022-08-24T17:55:43.702Z,35.85
2022-08-24T17:57:48.914Z,36.46
2022-08-24T17:59:52.900Z,36.58
2022-08-24T18:01:57.628Z,37.04
2022-08-24T18:04:01.779Z,38.08
2022-08-24T18:06:04.628Z,38.50
2022-08-24T18:08:08.462Z,39.01
2022-08-24T18:10:12.056Z,39.32
2022-08-24T18:12:15.766Z,40.01
2022-08-24T18:14:18.798Z,40.52
2022-08-24T18:16:24.802Z,41.19
2022-08-24T18:18:27.703Z,41.51
2022-08-24T18:20:39.829Z,42.22
2022-08-24T18:22:44.993Z,42.82
2022-08-24T18:24:47.787Z,43.46
2022-08-24T18:26:50.826Z,44.44
2022-08-24T18:28:54.066Z,44.48
2022-08-24T18:30:57.333Z,44.58
2022-08-24T18:33:01.751Z,44.61
2022-08-24T18:35:04.843Z,45.19
2022-08-24T18:37:09.544Z,45.58
2022-08-24T18:39:12.407Z,46.36
2022-08-24T18:41:15.388Z,46.37
2022-08-24T18:43:20.315Z,46.94
2022-08-24T18:45:33.877Z,47.72
2022-08-24T18:47:36.734Z,48.03
2022-08-24T18:49:39.521Z,48.45
2022-08-24T18:51:42.960Z,49.09
2022-08-24T18:53:48.449Z,49.37
2022-08-24T18:55:51.287Z,49.30
2022-08-24T18:57:54.517Z,49.89
2022-08-24T18:59:57.351Z,50.75
2022-08-24T19:02:19.281Z,51.11
2022-08-24T19:04:22.805Z,51.96
2022-08-24T19:06:33.177Z,52.25
2022-08-24T19:08:36.421Z,52.02
2022-08-24T19:10:41.226Z,52.98
2022-08-24T19:12:47.162Z,52.90
2022-08-24T19:14:54.542Z,53.27
2022-08-24T19:16:57.777Z,53.99
2022-08-24T19:19:00.657Z,53.85
2022-08-24T19:21:03.569Z,54.42
2022-08-24T19:23:09.171Z,55.32
2022-08-24T19:25:20.033Z,55.37
2022-08-24T19:27:25.399Z,54.80
2022-08-24T19:29:54.076Z,55.53
2022-08-24T19:31:53.608Z,51.18
2022-08-24T19:33:59.890Z,49.95
2022-08-24T19:36:06.895Z,50.49
2022-08-24T19:38:09.776Z,51.39
2022-08-24T19:40:13.885Z,51.99
2022-08-24T19:42:17.716Z,51.53
2022-08-24T19:44:40.114Z,51.80
2022-08-24T19:46:51.447Z,52.32
2022-08-24T19:48:54.927Z,52.25
2022-08-24T19:50:57.959Z,52.72
2022-08-24T19:53:01.552Z,52.83
2022-08-24T19:55:06.219Z,53.92
2022-08-24T19:57:31.206Z,53.68
2022-08-24T19:59:41.703Z,53.45
2022-08-24T20:01:44.574Z,53.82
2022-08-24T20:03:47.527Z,53.79
2022-08-24T20:05:50.513Z,54.15
2022-08-24T20:07:53.543Z,54.81
2022-08-24T20:09:56.534Z,54.90
2022-08-24T20:11:59.320Z,54.84
2022-08-24T20:14:02.734Z,56.88
2022-08-24T20:16:10.603Z,56.22
2022-08-24T20:18:15.009Z,56.21
2022-08-24T20:20:20.633Z,56.04
2022-08-24T20:22:23.405Z,57.69
2022-08-24T20:24:26.138Z,57.54
2022-08-24T20:26:32.872Z,58.56
2022-08-24T20:28:41.178Z,59.00
2022-08-24T20:30:44.336Z,59.86
2022-08-24T20:32:48.412Z,61.75
2022-08-24T20:34:51.537Z,63.29
2022-08-24T20:36:54.271Z,66.20
2022-08-24T20:38:59.635Z,62.97
2022-08-24T20:41:03.131Z,62.66
2022-08-24T20:43:07.098Z,62.47
2022-08-24T20:45:11.747Z,62.64
2022-08-24T20:47:16.557Z,65.13
2022-08-24T20:49:26.542Z,65.76
2022-08-24T20:51:29.463Z,63.30
2022-08-24T20:53:32.320Z,62.12
2022-08-24T20:55:35.148Z,61.14
2022-08-24T20:57:38.694Z,59.86
2022-08-24T20:59:42.386Z,60.79
2022-08-24T21:01:45.791Z,60.42
2022-08-24T21:03:48.711Z,59.92
2022-08-24T21:05:53.405Z,60.40
2022-08-24T21:07:57.793Z,60.26
2022-08-24T21:10:00.763Z,62.07
2022-08-24T21:12:03.959Z,61.20
2022-08-24T21:14:06.943Z,61.90
2022-08-24T21:16:11.128Z,61.78
2022-08-24T21:18:14.163Z,61.91
2022-08-24T21:20:17.065Z,64.07
2022-08-24T21:22:21.363Z,63.18
2022-08-24T21:24:25.692Z,62.49
2022-08-24T21:26:31.528Z,62.45
2022-08-24T21:28:35.382Z,62.11
2022-08-24T21:30:38.272Z,62.72
2022-08-24T21:32:59.992Z,63.61
2022-08-24T21:35:02.932Z,62.76
2022-08-24T21:37:07.245Z,62.81
2022-08-24T21:39:12.434Z,63.03
2022-08-24T21:41:15.621Z,62.91
2022-08-24T21:43:20.268Z,62.67
2022-08-24T21:45:24.074Z,62.86
2022-08-24T21:47:26.877Z,62.78
2022-08-24T21:49:29.833Z,62.61
2022-08-24T21:51:32.922Z,63.06
2022-08-24T21:53:36.920Z,63.41
2022-08-24T21:55:42.548Z,63.26
2022-08-24T21:57:45.334Z,62.84
2022-08-24T21:59:48.892Z,62.87
2022-08-24T22:01:52.465Z,61.88
2022-08-24T22:03:55.587Z,64.21
2022-08-24T22:05:58.397Z,63.49
2022-08-24T22:08:01.229Z,63.49
2022-08-24T22:10:05.313Z,63.70
2022-08-24T22:12:09.992Z,64.20
2022-08-24T22:14:15.171Z,66.89
2022-08-24T22:16:18.727Z,69.37
2022-08-24T22:18:21.568Z,68.72
2022-08-24T22:20:24.456Z,68.57
2022-08-24T22:22:27.879Z,67.69
2022-08-24T22:24:30.750Z,68.47
2022-08-24T22:26:34.270Z,67.25
2022-08-24T22:28:40.849Z,67.38
2022-08-24T22:30:47.816Z,67.48
2022-08-24T22:32:51.734Z,66.68
2022-08-24T22:34:54.531Z,68.73
2022-08-24T22:36:59.401Z,68.61
2022-08-24T22:39:03.080Z,69.62
2022-08-24T22:41:06.047Z,68.30
2022-08-24T22:43:08.852Z,67.01
2022-08-24T22:45:13.205Z,66.07
2022-08-24T22:47:16.095Z,65.42
2022-08-24T22:49:21.327Z,65.23
2022-08-24T22:51:24.337Z,64.82
2022-08-24T22:53:27.263Z,64.30
2022-08-24T22:55:32.668Z,64.22
2022-08-24T22:57:35.580Z,64.14
2022-08-24T22:59:40.561Z,64.24
2022-08-24T23:01:46.874Z,64.12
2022-08-24T23:03:50.257Z,64.27
2022-08-24T23:05:53.175Z,64.47
2022-08-24T23:07:55.939Z,64.04
2022-08-24T23:09:58.764Z,64.74
2022-08-24T23:12:01.977Z,65.80
2022-08-24T23:14:06.879Z,65.66
2022-08-24T23:16:11.842Z,65.56
2022-08-24T23:18:29.958Z,65.65
2022-08-24T23:20:32.783Z,66.06
2022-08-24T23:22:37.695Z,65.28
2022-08-24T23:24:42.355Z,65.35
2022-08-24T23:26:45.344Z,65.21
2022-08-24T23:28:49.436Z,65.47
2022-08-24T23:30:53.326Z,65.53
2022-08-24T23:32:56.181Z,65.27
2022-08-24T23:35:00.533Z,65.20
2022-08-24T23:37:03.721Z,64.62
2022-08-24T23:39:09.206Z,64.60
2022-08-24T23:41:14.860Z,64.89
2022-08-24T23:43:17.639Z,64.56
2022-08-24T23:45:20.739Z,64.11
2022-08-24T23:47:35.615Z,64.42
2022-08-24T23:49:40.119Z,64.31
2022-08-24T23:51:44.287Z,64.58
2022-08-24T23:53:48.643Z,64.50
2022-08-24T23:55:52.202Z,65.12
2022-08-24T23:57:55.669Z,66.48
